»·PEaware :: UAL180 KSFO-KLAX

UAL180 :: KSFO-KLAX

FLIGHT INFORMATION

Flight Status: Arrived
Operator:
United Airlines
More flights by this operator :: More flights under this callsign
Pilot: Etienne B. (28927)
Aircraft: AIRBUS A320
(A320)
More flights by this aircraft type
Origin: KSFO San Francisco Intl
United States
Destination: KLAX Los Angeles Intl
United States
More flights between these airports :: More routes between these airports
Route: +SSTIK4 EBAYE BURGL IRNMN2
File this flight plan on PilotEdge
Remarks: RMK / SIMBRIEF
Altitude:
(Current/Filed)
37,000ft
Speed:
(Current/Filed)
455kts
Departed: 18-May-20 04:33 PM
Arrived: 18-May-20 05:36 PM
Distance/Time
Traveled:
293nm/1:03
Distance/Time
To Go:
Arrived

Flight Plot

Page will automatically refresh every two minutes.

Flight plan parsing failed; only flown route is shown


Map Options




Map Legend


Flown Route
Filed Route
Departure Airport
Arrival Airport
Navaid (VOR, NDB)
Fix

Horizontal Profiles

Position Reports

Time Latitude Longitude Heading Altitude Ground
Speed
18-May-20 16:14 37.619723 -122.388268 26 32ft 0kts
18-May-20 16:15 37.619723 -122.388268 26 32ft 0kts
18-May-20 16:16 37.619723 -122.388268 26 32ft 0kts
18-May-20 16:17 37.619723 -122.388268 26 32ft 0kts
18-May-20 16:18 37.619723 -122.388268 26 32ft 0kts
18-May-20 16:19 37.619723 -122.388268 26 32ft 0kts
18-May-20 16:20 37.619723 -122.388268 26 32ft 0kts
18-May-20 16:21 37.619403 -122.388468 26 32ft 2kts
18-May-20 16:22 37.618908 -122.388546 314 32ft 2kts
18-May-20 16:23 37.618838 -122.388407 297 32ft 0kts
18-May-20 16:24 37.618872 -122.388491 297 32ft 2kts
18-May-20 16:25 37.619927 -122.391077 297 32ft 12kts
18-May-20 16:27 37.621727 -122.391410 27 32ft 5kts
18-May-20 16:28 37.621959 -122.387507 119 32ft 18kts
18-May-20 16:29 37.619142 -122.380803 118 32ft 22kts
18-May-20 16:30 37.613982 -122.381401 209 32ft 20kts
18-May-20 16:31 37.609175 -122.384773 189 32ft 16kts
18-May-20 16:32 37.608666 -122.382431 27 30ft 16kts
18-May-20 16:33 37.642139 -122.362334 13 993ft 186kts
18-May-20 16:34 37.689898 -122.374247 285 3565ft 189kts
18-May-20 16:35 37.649671 -122.407920 198 5556ft 239kts
18-May-20 16:36 37.578532 -122.440224 199 7859ft 279kts
18-May-20 16:37 37.503281 -122.465083 177 10599ft 296kts
18-May-20 16:38 37.431919 -122.396997 133 11704ft 361kts
18-May-20 16:39 37.362454 -122.301622 134 13731ft 376kts
18-May-20 16:40 37.290493 -122.203937 135 15663ft 387kts
18-May-20 16:41 37.216815 -122.104391 135 17411ft 396kts
18-May-20 16:42 37.140649 -122.001820 135 18962ft 404kts
18-May-20 16:42 37.076905 -121.916201 136 19069ft 405kts
18-May-20 16:44 36.986014 -121.794580 136 19070ft 415kts
18-May-20 16:45 36.906080 -121.687988 137 19934ft 426kts
18-May-20 16:45 36.837920 -121.597352 137 21108ft 433kts
18-May-20 16:46 36.754742 -121.487098 137 22401ft 441kts
18-May-20 16:47 36.669874 -121.374976 138 23606ft 449kts
18-May-20 16:48 36.583523 -121.261311 139 24711ft 455kts
18-May-20 16:49 36.495945 -121.146439 139 25807ft 459kts
18-May-20 16:50 36.409386 -121.030135 138 27113ft 457kts
18-May-20 16:51 36.326894 -120.911550 139 28347ft 451kts
18-May-20 16:52 36.244860 -120.794099 140 29306ft 451kts
18-May-20 16:53 36.162588 -120.676883 143 30272ft 447kts
18-May-20 16:54 36.075615 -120.574516 145 32087ft 423kts
18-May-20 16:55 35.998464 -120.472227 146 34074ft 395kts
18-May-20 16:56 35.924400 -120.372988 146 35007ft 392kts
18-May-20 16:57 35.848579 -120.271528 146 35037ft 413kts
18-May-20 16:58 35.762268 -120.180241 161 35025ft 406kts
18-May-20 16:59 35.664264 -120.106537 160 35037ft 416kts
18-May-20 17:00 35.565947 -120.032262 160 35033ft 415kts
18-May-20 17:01 35.466103 -119.957151 159 32852ft 428kts
18-May-20 17:02 35.364274 -119.880720 157 29913ft 435kts
18-May-20 17:03 35.261965 -119.799118 150 27368ft 450kts
18-May-20 17:04 35.162254 -119.705914 149 26400ft 451kts
18-May-20 17:05 35.061805 -119.612359 149 25992ft 456kts
18-May-20 17:06 34.960174 -119.518024 150 25990ft 466kts
18-May-20 17:07 34.856616 -119.423546 153 25713ft 449kts
18-May-20 17:08 34.760645 -119.337695 154 24931ft 407kts
18-May-20 17:09 34.670363 -119.258675 154 23017ft 396kts
18-May-20 17:10 34.582209 -119.182493 153 21167ft 384kts
18-May-20 17:11 34.496670 -119.107297 152 19337ft 375kts
18-May-20 17:12 34.413771 -119.034324 151 17537ft 365kts
18-May-20 17:13 34.332537 -118.963978 150 15779ft 355kts
18-May-20 17:14 34.254696 -118.893174 149 14046ft 345kts
18-May-20 17:15 34.181279 -118.825621 148 12875ft 320kts
18-May-20 17:16 34.117112 -118.758922 143 12017ft 293kts
18-May-20 17:17 34.056929 -118.693298 144 10575ft 289kts
18-May-20 17:18 34.023929 -118.607430 99 9210ft 302kts
18-May-20 17:19 34.015049 -118.509395 100 8212ft 284kts
18-May-20 17:20 33.995851 -118.429313 127 7820ft 255kts
18-May-20 17:21 33.958719 -118.358347 127 7338ft 255kts
18-May-20 17:22 33.927221 -118.284796 110 6804ft 263kts
18-May-20 17:23 33.907012 -118.204680 109 6134ft 263kts
18-May-20 17:24 33.909312 -118.119669 81 5450ft 258kts
18-May-20 17:25 33.916971 -118.038219 81 4586ft 248kts
18-May-20 17:26 33.944617 -117.975926 358 4016ft 214kts
18-May-20 17:27 33.973637 -118.025592 268 4011ft 202kts
18-May-20 17:28 33.967628 -118.090393 264 4014ft 175kts
18-May-20 17:29 33.962420 -118.140909 264 4058ft 151kts
18-May-20 17:30 33.957212 -118.190029 262 3395ft 154kts
18-May-20 17:31 33.952294 -118.235764 264 2451ft 134kts
18-May-20 17:32 33.947703 -118.280506 261 1823ft 142kts
18-May-20 17:33 33.943179 -118.326127 260 1028ft 136kts
18-May-20 17:34 33.938588 -118.370620 262 374ft 137kts
18-May-20 17:35 33.935688 -118.401434 278 123ft 30kts
18-May-20 17:36 33.935914 -118.402753 292 126ft 1kts
18-May-20 17:37 33.936141 -118.405479 261 130ft 13kts
18-May-20 17:38 33.935952 -118.408021 283 133ft 0kts
18-May-20 17:39 33.936667 -118.408940 352 133ft 10kts
18-May-20 17:40 33.938145 -118.406200 82 132ft 13kts
18-May-20 17:41 33.939682 -118.405394 354 130ft 6kts
18-May-20 17:42 33.940764 -118.405796 279 130ft 1kts

Navigation Log

Ident Type
Flight plan parsing failed, navigation log unavailable